sensor_id;sensor_type;location;lat;lon;timestamp;P1;durP1;ratioP1;P2;durP2;ratioP2
49738;SDS011;53662;50.114;8.626;2023-12-20T00:01:31;7.97;;;5.30;;
49738;SDS011;53662;50.114;8.626;2023-12-20T00:03:57;5.75;;;5.25;;
49738;SDS011;53662;50.114;8.626;2023-12-20T00:06:23;6.70;;;5.43;;
49738;SDS011;53662;50.114;8.626;2023-12-20T00:08:49;7.13;;;5.25;;
49738;SDS011;53662;50.114;8.626;2023-12-20T00:11:15;5.57;;;5.07;;
49738;SDS011;53662;50.114;8.626;2023-12-20T00:13:41;7.20;;;5.18;;
49738;SDS011;53662;50.114;8.626;2023-12-20T00:16:07;4.75;;;4.35;;
49738;SDS011;53662;50.114;8.626;2023-12-20T00:18:33;7.32;;;4.57;;
49738;SDS011;53662;50.114;8.626;2023-12-20T00:20:58;4.22;;;3.92;;
49738;SDS011;53662;50.114;8.626;2023-12-20T00:23:24;5.45;;;4.43;;
49738;SDS011;53662;50.114;8.626;2023-12-20T00:25:50;4.15;;;3.70;;
49738;SDS011;53662;50.114;8.626;2023-12-20T00:28:16;4.53;;;3.67;;
49738;SDS011;53662;50.114;8.626;2023-12-20T00:30:42;5.68;;;3.75;;
49738;SDS011;53662;50.114;8.626;2023-12-20T00:33:08;4.85;;;4.45;;
49738;SDS011;53662;50.114;8.626;2023-12-20T00:35:34;4.22;;;3.90;;
49738;SDS011;53662;50.114;8.626;2023-12-20T00:38:00;3.97;;;3.47;;
49738;SDS011;53662;50.114;8.626;2023-12-20T00:40:27;4.07;;;3.55;;
49738;SDS011;53662;50.114;8.626;2023-12-20T00:42:53;3.88;;;3.40;;
49738;SDS011;53662;50.114;8.626;2023-12-20T00:45:19;4.15;;;3.75;;
49738;SDS011;53662;50.114;8.626;2023-12-20T00:47:44;7.03;;;4.13;;
49738;SDS011;53662;50.114;8.626;2023-12-20T00:50:10;3.63;;;3.30;;
49738;SDS011;53662;50.114;8.626;2023-12-20T00:52:36;4.32;;;3.42;;
49738;SDS011;53662;50.114;8.626;2023-12-20T00:55:03;3.10;;;2.90;;
49738;SDS011;53662;50.114;8.626;2023-12-20T00:57:29;4.22;;;3.78;;
49738;SDS011;53662;50.114;8.626;2023-12-20T00:59:55;3.78;;;3.30;;
49738;SDS011;53662;50.114;8.626;2023-12-20T01:02:21;3.67;;;3.47;;
49738;SDS011;53662;50.114;8.626;2023-12-20T01:04:47;3.70;;;3.40;;
49738;SDS011;53662;50.114;8.626;2023-12-20T01:07:13;3.17;;;2.97;;
49738;SDS011;53662;50.114;8.626;2023-12-20T01:09:39;3.97;;;2.80;;
49738;SDS011;53662;50.114;8.626;2023-12-20T01:12:05;3.35;;;3.15;;
49738;SDS011;53662;50.114;8.626;2023-12-20T01:14:31;4.20;;;3.90;;
49738;SDS011;53662;50.114;8.626;2023-12-20T01:16:57;3.67;;;3.38;;
49738;SDS011;53662;50.114;8.626;2023-12-20T01:19:24;3.65;;;3.45;;
49738;SDS011;53662;50.114;8.626;2023-12-20T01:21:50;3.50;;;3.30;;
49738;SDS011;53662;50.114;8.626;2023-12-20T01:24:15;4.13;;;3.72;;
49738;SDS011;53662;50.114;8.626;2023-12-20T01:26:41;3.13;;;2.92;;
49738;SDS011;53662;50.114;8.626;2023-12-20T01:29:07;2.72;;;2.63;;
49738;SDS011;53662;50.114;8.626;2023-12-20T01:31:33;3.25;;;3.05;;
49738;SDS011;53662;50.114;8.626;2023-12-20T01:33:59;2.72;;;2.53;;
49738;SDS011;53662;50.114;8.626;2023-12-20T01:36:25;3.83;;;3.53;;
49738;SDS011;53662;50.114;8.626;2023-12-20T01:38:51;2.97;;;2.80;;
49738;SDS011;53662;50.114;8.626;2023-12-20T01:41:17;2.72;;;2.50;;
49738;SDS011;53662;50.114;8.626;2023-12-20T01:43:43;3.88;;;3.17;;
49738;SDS011;53662;50.114;8.626;2023-12-20T01:46:09;3.17;;;2.92;;
49738;SDS011;53662;50.114;8.626;2023-12-20T01:48:37;3.30;;;3.10;;
49738;SDS011;53662;50.114;8.626;2023-12-20T01:51:03;5.13;;;3.30;;
49738;SDS011;53662;50.114;8.626;2023-12-20T01:53:30;3.15;;;2.95;;
49738;SDS011;53662;50.114;8.626;2023-12-20T01:55:57;4.50;;;2.65;;
49738;SDS011;53662;50.114;8.626;2023-12-20T01:58:24;2.40;;;2.30;;
49738;SDS011;53662;50.114;8.626;2023-12-20T02:00:50;2.30;;;2.20;;
49738;SDS011;53662;50.114;8.626;2023-12-20T02:03:17;3.17;;;2.88;;
49738;SDS011;53662;50.114;8.626;2023-12-20T02:05:44;3.10;;;2.95;;
49738;SDS011;53662;50.114;8.626;2023-12-20T02:08:10;3.13;;;3.03;;
49738;SDS011;53662;50.114;8.626;2023-12-20T02:10:36;2.60;;;2.38;;
49738;SDS011;53662;50.114;8.626;2023-12-20T02:13:03;2.58;;;2.47;;
49738;SDS011;53662;50.114;8.626;2023-12-20T02:15:29;2.88;;;2.67;;
49738;SDS011;53662;50.114;8.626;2023-12-20T02:17:55;2.15;;;2.05;;
49738;SDS011;53662;50.114;8.626;2023-12-20T02:20:21;2.90;;;2.65;;
49738;SDS011;53662;50.114;8.626;2023-12-20T02:22:47;2.97;;;2.80;;
49738;SDS011;53662;50.114;8.626;2023-12-20T02:25:13;3.35;;;3.00;;
49738;SDS011;53662;50.114;8.626;2023-12-20T02:27:39;2.83;;;2.67;;
49738;SDS011;53662;50.114;8.626;2023-12-20T02:30:05;2.67;;;2.45;;
49738;SDS011;53662;50.114;8.626;2023-12-20T02:32:31;2.88;;;2.78;;
49738;SDS011;53662;50.114;8.626;2023-12-20T02:34:57;2.45;;;2.35;;
49738;SDS011;53662;50.114;8.626;2023-12-20T02:37:24;3.60;;;2.22;;
49738;SDS011;53662;50.114;8.626;2023-12-20T02:39:50;2.55;;;2.38;;
49738;SDS011;53662;50.114;8.626;2023-12-20T02:42:16;2.47;;;2.38;;
49738;SDS011;53662;50.114;8.626;2023-12-20T02:44:42;4.65;;;2.33;;
49738;SDS011;53662;50.114;8.626;2023-12-20T02:47:07;5.20;;;2.42;;
49738;SDS011;53662;50.114;8.626;2023-12-20T02:49:33;3.00;;;2.70;;
49738;SDS011;53662;50.114;8.626;2023-12-20T02:51:59;3.10;;;2.58;;
49738;SDS011;53662;50.114;8.626;2023-12-20T02:54:25;2.42;;;2.33;;
49738;SDS011;53662;50.114;8.626;2023-12-20T02:56:51;2.97;;;2.20;;
49738;SDS011;53662;50.114;8.626;2023-12-20T02:59:17;2.95;;;2.38;;
49738;SDS011;53662;50.114;8.626;2023-12-20T03:01:43;2.28;;;2.17;;
49738;SDS011;53662;50.114;8.626;2023-12-20T03:04:10;2.13;;;2.03;;
49738;SDS011;53662;50.114;8.626;2023-12-20T03:06:36;2.90;;;1.80;;
49738;SDS011;53662;50.114;8.626;2023-12-20T03:09:02;2.28;;;2.17;;
49738;SDS011;53662;50.114;8.626;2023-12-20T03:11:28;2.45;;;2.35;;
49738;SDS011;53662;50.114;8.626;2023-12-20T03:13:54;2.30;;;2.20;;
49738;SDS011;53662;50.114;8.626;2023-12-20T03:16:20;2.20;;;2.10;;
49738;SDS011;53662;50.114;8.626;2023-12-20T03:18:46;2.35;;;2.17;;
49738;SDS011;53662;50.114;8.626;2023-12-20T03:21:12;2.83;;;2.65;;
49738;SDS011;53662;50.114;8.626;2023-12-20T03:23:38;1.83;;;1.73;;
49738;SDS011;53662;50.114;8.626;2023-12-20T03:26:06;1.98;;;1.88;;
49738;SDS011;53662;50.114;8.626;2023-12-20T03:28:32;2.60;;;2.40;;
49738;SDS011;53662;50.114;8.626;2023-12-20T03:30:58;3.55;;;2.08;;
49738;SDS011;53662;50.114;8.626;2023-12-20T03:33:24;2.40;;;2.20;;
49738;SDS011;53662;50.114;8.626;2023-12-20T03:35:50;2.10;;;2.00;;
49738;SDS011;53662;50.114;8.626;2023-12-20T03:38:16;2.95;;;1.70;;
49738;SDS011;53662;50.114;8.626;2023-12-20T03:40:42;2.10;;;2.00;;
49738;SDS011;53662;50.114;8.626;2023-12-20T03:43:08;3.53;;;2.20;;
49738;SDS011;53662;50.114;8.626;2023-12-20T03:45:34;2.10;;;2.00;;
49738;SDS011;53662;50.114;8.626;2023-12-20T03:48:00;3.90;;;1.95;;
49738;SDS011;53662;50.114;8.626;2023-12-20T03:50:26;3.40;;;1.80;;
49738;SDS011;53662;50.114;8.626;2023-12-20T03:52:52;1.75;;;1.65;;
49738;SDS011;53662;50.114;8.626;2023-12-20T03:55:18;1.65;;;1.63;;
49738;SDS011;53662;50.114;8.626;2023-12-20T03:57:44;2.45;;;1.77;;
49738;SDS011;53662;50.114;8.626;2023-12-20T04:00:10;1.98;;;1.65;;
49738;SDS011;53662;50.114;8.626;2023-12-20T04:02:37;3.80;;;1.88;;
49738;SDS011;53662;50.114;8.626;2023-12-20T04:05:03;2.38;;;1.77;;
49738;SDS011;53662;50.114;8.626;2023-12-20T04:07:30;2.83;;;1.95;;
49738;SDS011;53662;50.114;8.626;2023-12-20T04:09:56;2.33;;;2.13;;
49738;SDS011;53662;50.114;8.626;2023-12-20T04:12:21;1.95;;;1.83;;
49738;SDS011;53662;50.114;8.626;2023-12-20T04:14:47;2.25;;;2.15;;
49738;SDS011;53662;50.114;8.626;2023-12-20T04:17:14;4.22;;;2.20;;
49738;SDS011;53662;50.114;8.626;2023-12-20T04:19:50;2.20;;;2.10;;
49738;SDS011;53662;50.114;8.626;2023-12-20T04:22:19;2.35;;;2.10;;
49738;SDS011;53662;50.114;8.626;2023-12-20T04:24:45;3.30;;;2.33;;
49738;SDS011;53662;50.114;8.626;2023-12-20T04:27:11;2.42;;;2.08;;
49738;SDS011;53662;50.114;8.626;2023-12-20T04:29:37;2.83;;;1.73;;
49738;SDS011;53662;50.114;8.626;2023-12-20T04:32:03;2.22;;;2.13;;
49738;SDS011;53662;50.114;8.626;2023-12-20T04:34:29;2.05;;;1.95;;
49738;SDS011;53662;50.114;8.626;2023-12-20T04:36:55;2.33;;;1.90;;
49738;SDS011;53662;50.114;8.626;2023-12-20T04:39:21;3.45;;;1.80;;
49738;SDS011;53662;50.114;8.626;2023-12-20T04:41:47;3.65;;;2.33;;
49738;SDS011;53662;50.114;8.626;2023-12-20T04:44:15;2.40;;;2.22;;
49738;SDS011;53662;50.114;8.626;2023-12-20T04:46:41;2.08;;;1.98;;
49738;SDS011;53662;50.114;8.626;2023-12-20T04:49:07;1.70;;;1.70;;
49738;SDS011;53662;50.114;8.626;2023-12-20T04:51:33;2.10;;;2.00;;
49738;SDS011;53662;50.114;8.626;2023-12-20T04:53:59;4.90;;;1.98;;
49738;SDS011;53662;50.114;8.626;2023-12-20T04:56:25;2.03;;;1.85;;
49738;SDS011;53662;50.114;8.626;2023-12-20T04:58:51;2.55;;;2.28;;
49738;SDS011;53662;50.114;8.626;2023-12-20T05:01:20;8.80;;;2.30;;
49738;SDS011;53662;50.114;8.626;2023-12-20T05:03:46;2.20;;;2.10;;
49738;SDS011;53662;50.114;8.626;2023-12-20T05:06:12;4.03;;;2.45;;
49738;SDS011;53662;50.114;8.626;2023-12-20T05:08:38;4.18;;;2.45;;
49738;SDS011;53662;50.114;8.626;2023-12-20T05:11:04;2.72;;;2.50;;
49738;SDS011;53662;50.114;8.626;2023-12-20T05:13:30;3.33;;;2.63;;
49738;SDS011;53662;50.114;8.626;2023-12-20T05:15:56;2.67;;;2.47;;
49738;SDS011;53662;50.114;8.626;2023-12-20T05:18:22;2.90;;;2.63;;
49738;SDS011;53662;50.114;8.626;2023-12-20T05:20:48;3.08;;;2.78;;
49738;SDS011;53662;50.114;8.626;2023-12-20T05:23:14;5.20;;;2.95;;
49738;SDS011;53662;50.114;8.626;2023-12-20T05:25:40;3.28;;;3.08;;
49738;SDS011;53662;50.114;8.626;2023-12-20T05:28:08;5.18;;;3.20;;
49738;SDS011;53662;50.114;8.626;2023-12-20T05:30:35;4.40;;;2.92;;
49738;SDS011;53662;50.114;8.626;2023-12-20T05:33:01;7.57;;;3.72;;
49738;SDS011;53662;50.114;8.626;2023-12-20T05:35:27;4.40;;;3.30;;
49738;SDS011;53662;50.114;8.626;2023-12-20T05:37:52;5.30;;;3.55;;
49738;SDS011;53662;50.114;8.626;2023-12-20T05:40:18;8.30;;;4.43;;
49738;SDS011;53662;50.114;8.626;2023-12-20T05:42:44;8.75;;;5.13;;
49738;SDS011;53662;50.114;8.626;2023-12-20T05:45:10;4.38;;;4.00;;
49738;SDS011;53662;50.114;8.626;2023-12-20T05:47:36;4.57;;;3.53;;
49738;SDS011;53662;50.114;8.626;2023-12-20T05:50:05;5.57;;;3.45;;
49738;SDS011;53662;50.114;8.626;2023-12-20T05:52:34;4.80;;;2.72;;
49738;SDS011;53662;50.114;8.626;2023-12-20T05:55:00;3.35;;;3.00;;
49738;SDS011;53662;50.114;8.626;2023-12-20T05:57:26;2.97;;;2.40;;
49738;SDS011;53662;50.114;8.626;2023-12-20T05:59:52;5.28;;;2.55;;
49738;SDS011;53662;50.114;8.626;2023-12-20T06:02:18;2.88;;;2.60;;
49738;SDS011;53662;50.114;8.626;2023-12-20T06:04:44;2.38;;;2.15;;
49738;SDS011;53662;50.114;8.626;2023-12-20T06:07:11;7.57;;;2.10;;
49738;SDS011;53662;50.114;8.626;2023-12-20T06:09:38;3.28;;;2.58;;
49738;SDS011;53662;50.114;8.626;2023-12-20T06:12:04;2.70;;;2.10;;
49738;SDS011;53662;50.114;8.626;2023-12-20T06:14:30;5.65;;;2.40;;
49738;SDS011;53662;50.114;8.626;2023-12-20T06:16:56;6.97;;;2.42;;
49738;SDS011;53662;50.114;8.626;2023-12-20T06:19:22;4.95;;;1.58;;
49738;SDS011;53662;50.114;8.626;2023-12-20T06:21:48;7.43;;;1.63;;
49738;SDS011;53662;50.114;8.626;2023-12-20T06:24:14;7.55;;;1.92;;
49738;SDS011;53662;50.114;8.626;2023-12-20T06:26:40;7.05;;;1.48;;
49738;SDS011;53662;50.114;8.626;2023-12-20T06:29:06;11.13;;;1.73;;
49738;SDS011;53662;50.114;8.626;2023-12-20T06:31:32;9.13;;;1.27;;
49738;SDS011;53662;50.114;8.626;2023-12-20T06:33:58;10.10;;;1.70;;
49738;SDS011;53662;50.114;8.626;2023-12-20T06:36:25;8.75;;;1.63;;
49738;SDS011;53662;50.114;8.626;2023-12-20T06:38:51;9.13;;;1.73;;
49738;SDS011;53662;50.114;8.626;2023-12-20T06:41:17;4.38;;;1.05;;
49738;SDS011;53662;50.114;8.626;2023-12-20T06:43:43;5.90;;;1.27;;
49738;SDS011;53662;50.114;8.626;2023-12-20T06:46:09;10.75;;;2.03;;
49738;SDS011;53662;50.114;8.626;2023-12-20T06:48:35;7.22;;;1.60;;
49738;SDS011;53662;50.114;8.626;2023-12-20T06:51:01;10.55;;;1.70;;
49738;SDS011;53662;50.114;8.626;2023-12-20T06:53:27;4.80;;;1.25;;
49738;SDS011;53662;50.114;8.626;2023-12-20T06:55:54;7.40;;;1.65;;
49738;SDS011;53662;50.114;8.626;2023-12-20T06:58:21;10.43;;;1.50;;
49738;SDS011;53662;50.114;8.626;2023-12-20T07:00:47;3.65;;;1.58;;
49738;SDS011;53662;50.114;8.626;2023-12-20T07:03:13;5.65;;;1.58;;
49738;SDS011;53662;50.114;8.626;2023-12-20T07:05:39;5.35;;;1.33;;
49738;SDS011;53662;50.114;8.626;2023-12-20T07:08:06;6.50;;;1.35;;
49738;SDS011;53662;50.114;8.626;2023-12-20T07:10:32;6.20;;;2.88;;
49738;SDS011;53662;50.114;8.626;2023-12-20T07:12:58;8.68;;;4.30;;
49738;SDS011;53662;50.114;8.626;2023-12-20T07:15:24;8.13;;;2.03;;
49738;SDS011;53662;50.114;8.626;2023-12-20T07:17:50;4.28;;;1.23;;
49738;SDS011;53662;50.114;8.626;2023-12-20T07:20:16;9.60;;;2.00;;
49738;SDS011;53662;50.114;8.626;2023-12-20T07:22:42;3.35;;;1.83;;
49738;SDS011;53662;50.114;8.626;2023-12-20T07:25:08;5.30;;;1.92;;
49738;SDS011;53662;50.114;8.626;2023-12-20T07:27:34;4.82;;;1.73;;
49738;SDS011;53662;50.114;8.626;2023-12-20T07:30:00;4.72;;;1.50;;
49738;SDS011;53662;50.114;8.626;2023-12-20T07:32:26;9.13;;;1.70;;
49738;SDS011;53662;50.114;8.626;2023-12-20T07:34:52;11.95;;;1.48;;
49738;SDS011;53662;50.114;8.626;2023-12-20T07:37:18;5.05;;;1.50;;
49738;SDS011;53662;50.114;8.626;2023-12-20T07:39:44;4.00;;;2.08;;
49738;SDS011;53662;50.114;8.626;2023-12-20T07:42:10;4.70;;;1.48;;
49738;SDS011;53662;50.114;8.626;2023-12-20T07:44:36;3.05;;;1.65;;
49738;SDS011;53662;50.114;8.626;2023-12-20T07:47:02;3.58;;;1.30;;
49738;SDS011;53662;50.114;8.626;2023-12-20T07:49:28;6.13;;;1.95;;
49738;SDS011;53662;50.114;8.626;2023-12-20T07:51:54;4.25;;;1.50;;
49738;SDS011;53662;50.114;8.626;2023-12-20T07:54:20;2.72;;;1.35;;
49738;SDS011;53662;50.114;8.626;2023-12-20T07:56:46;6.57;;;1.35;;
49738;SDS011;53662;50.114;8.626;2023-12-20T07:59:12;9.20;;;1.67;;
49738;SDS011;53662;50.114;8.626;2023-12-20T08:01:38;7.70;;;1.52;;
49738;SDS011;53662;50.114;8.626;2023-12-20T08:04:04;13.05;;;1.58;;
49738;SDS011;53662;50.114;8.626;2023-12-20T08:06:30;7.10;;;1.65;;
49738;SDS011;53662;50.114;8.626;2023-12-20T08:08:56;6.35;;;1.20;;
49738;SDS011;53662;50.114;8.626;2023-12-20T08:11:22;5.97;;;1.50;;
49738;SDS011;53662;50.114;8.626;2023-12-20T08:13:48;5.63;;;2.47;;
49738;SDS011;53662;50.114;8.626;2023-12-20T08:16:14;8.63;;;1.48;;
49738;SDS011;53662;50.114;8.626;2023-12-20T08:18:42;10.88;;;1.65;;
49738;SDS011;53662;50.114;8.626;2023-12-20T08:21:08;6.45;;;1.92;;
49738;SDS011;53662;50.114;8.626;2023-12-20T08:23:34;11.23;;;1.88;;
49738;SDS011;53662;50.114;8.626;2023-12-20T08:26:04;5.38;;;1.38;;
49738;SDS011;53662;50.114;8.626;2023-12-20T08:28:30;4.28;;;1.38;;
49738;SDS011;53662;50.114;8.626;2023-12-20T08:30:56;4.35;;;1.23;;
49738;SDS011;53662;50.114;8.626;2023-12-20T08:33:22;11.55;;;2.20;;
49738;SDS011;53662;50.114;8.626;2023-12-20T08:35:48;10.10;;;2.05;;
49738;SDS011;53662;50.114;8.626;2023-12-20T08:38:14;6.53;;;1.48;;
49738;SDS011;53662;50.114;8.626;2023-12-20T08:40:41;3.67;;;1.50;;
49738;SDS011;53662;50.114;8.626;2023-12-20T08:43:07;5.47;;;1.65;;
49738;SDS011;53662;50.114;8.626;2023-12-20T08:45:33;2.25;;;0.77;;
49738;SDS011;53662;50.114;8.626;2023-12-20T08:47:59;10.10;;;1.83;;
49738;SDS011;53662;50.114;8.626;2023-12-20T08:50:25;10.43;;;1.42;;
49738;SDS011;53662;50.114;8.626;2023-12-20T08:52:51;8.52;;;2.00;;
49738;SDS011;53662;50.114;8.626;2023-12-20T08:55:17;5.95;;;1.83;;
49738;SDS011;53662;50.114;8.626;2023-12-20T08:57:43;6.03;;;1.60;;
49738;SDS011;53662;50.114;8.626;2023-12-20T09:00:09;8.30;;;1.45;;
49738;SDS011;53662;50.114;8.626;2023-12-20T09:02:35;5.13;;;1.35;;
49738;SDS011;53662;50.114;8.626;2023-12-20T09:05:02;10.32;;;1.55;;
49738;SDS011;53662;50.114;8.626;2023-12-20T09:07:28;5.38;;;2.05;;
49738;SDS011;53662;50.114;8.626;2023-12-20T09:09:56;10.50;;;2.22;;
49738;SDS011;53662;50.114;8.626;2023-12-20T09:12:22;14.43;;;1.80;;
49738;SDS011;53662;50.114;8.626;2023-12-20T09:14:49;6.63;;;1.80;;
49738;SDS011;53662;50.114;8.626;2023-12-20T09:17:15;8.52;;;1.42;;
49738;SDS011;53662;50.114;8.626;2023-12-20T09:19:42;6.55;;;2.20;;
49738;SDS011;53662;50.114;8.626;2023-12-20T09:22:11;5.20;;;1.73;;
49738;SDS011;53662;50.114;8.626;2023-12-20T09:24:37;6.90;;;1.58;;
49738;SDS011;53662;50.114;8.626;2023-12-20T09:27:03;5.93;;;2.47;;
49738;SDS011;53662;50.114;8.626;2023-12-20T09:29:30;13.50;;;1.83;;
49738;SDS011;53662;50.114;8.626;2023-12-20T09:31:56;6.70;;;1.70;;
49738;SDS011;53662;50.114;8.626;2023-12-20T09:34:22;6.55;;;1.77;;
49738;SDS011;53662;50.114;8.626;2023-12-20T09:36:49;8.52;;;2.20;;
49738;SDS011;53662;50.114;8.626;2023-12-20T09:39:15;6.28;;;1.70;;
49738;SDS011;53662;50.114;8.626;2023-12-20T09:41:44;10.30;;;1.85;;
49738;SDS011;53662;50.114;8.626;2023-12-20T09:44:15;8.65;;;2.10;;
49738;SDS011;53662;50.114;8.626;2023-12-20T09:46:43;6.75;;;1.75;;
49738;SDS011;53662;50.114;8.626;2023-12-20T09:49:09;7.22;;;1.98;;
49738;SDS011;53662;50.114;8.626;2023-12-20T09:51:35;16.10;;;2.10;;
49738;SDS011;53662;50.114;8.626;2023-12-20T09:54:03;7.88;;;1.77;;
49738;SDS011;53662;50.114;8.626;2023-12-20T09:56:29;7.90;;;1.92;;
49738;SDS011;53662;50.114;8.626;2023-12-20T09:58:55;9.63;;;1.63;;
49738;SDS011;53662;50.114;8.626;2023-12-20T10:01:21;9.68;;;2.38;;
49738;SDS011;53662;50.114;8.626;2023-12-20T10:03:48;9.25;;;2.40;;
49738;SDS011;53662;50.114;8.626;2023-12-20T10:06:15;13.43;;;2.28;;
49738;SDS011;53662;50.114;8.626;2023-12-20T10:08:41;18.55;;;9.05;;
49738;SDS011;53662;50.114;8.626;2023-12-20T10:11:07;10.27;;;2.25;;
49738;SDS011;53662;50.114;8.626;2023-12-20T10:13:33;8.73;;;1.95;;
49738;SDS011;53662;50.114;8.626;2023-12-20T10:15:59;7.32;;;1.95;;
49738;SDS011;53662;50.114;8.626;2023-12-20T10:18:25;11.38;;;1.92;;
49738;SDS011;53662;50.114;8.626;2023-12-20T10:20:51;7.78;;;2.53;;
49738;SDS011;53662;50.114;8.626;2023-12-20T10:23:17;8.93;;;1.90;;
49738;SDS011;53662;50.114;8.626;2023-12-20T10:25:47;5.80;;;2.20;;
49738;SDS011;53662;50.114;8.626;2023-12-20T10:28:21;6.32;;;1.95;;
49738;SDS011;53662;50.114;8.626;2023-12-20T10:30:48;8.80;;;2.30;;
49738;SDS011;53662;50.114;8.626;2023-12-20T10:33:19;12.40;;;2.17;;
49738;SDS011;53662;50.114;8.626;2023-12-20T10:35:48;8.07;;;1.98;;
49738;SDS011;53662;50.114;8.626;2023-12-20T10:38:14;4.13;;;1.67;;
49738;SDS011;53662;50.114;8.626;2023-12-20T10:40:40;6.63;;;1.83;;
49738;SDS011;53662;50.114;8.626;2023-12-20T10:43:06;9.10;;;2.00;;
49738;SDS011;53662;50.114;8.626;2023-12-20T10:45:34;10.85;;;2.65;;
49738;SDS011;53662;50.114;8.626;2023-12-20T10:48:01;8.45;;;1.83;;
49738;SDS011;53662;50.114;8.626;2023-12-20T10:50:27;8.05;;;2.28;;
49738;SDS011;53662;50.114;8.626;2023-12-20T10:52:54;10.70;;;2.17;;
49738;SDS011;53662;50.114;8.626;2023-12-20T10:55:21;6.55;;;1.45;;
49738;SDS011;53662;50.114;8.626;2023-12-20T10:57:48;6.32;;;1.80;;
49738;SDS011;53662;50.114;8.626;2023-12-20T11:00:16;4.35;;;1.33;;
49738;SDS011;53662;50.114;8.626;2023-12-20T11:02:43;14.55;;;2.17;;
49738;SDS011;53662;50.114;8.626;2023-12-20T11:07:59;11.15;;;2.22;;
49738;SDS011;53662;50.114;8.626;2023-12-20T11:10:31;8.93;;;2.55;;
49738;SDS011;53662;50.114;8.626;2023-12-20T11:12:59;6.55;;;2.00;;
49738;SDS011;53662;50.114;8.626;2023-12-20T11:15:29;7.95;;;2.00;;
49738;SDS011;53662;50.114;8.626;2023-12-20T11:17:55;5.65;;;2.05;;
49738;SDS011;53662;50.114;8.626;2023-12-20T11:20:35;5.63;;;1.63;;
49738;SDS011;53662;50.114;8.626;2023-12-20T11:23:01;11.98;;;1.80;;
49738;SDS011;53662;50.114;8.626;2023-12-20T11:25:27;12.20;;;2.17;;
49738;SDS011;53662;50.114;8.626;2023-12-20T11:28:07;8.40;;;2.35;;
49738;SDS011;53662;50.114;8.626;2023-12-20T11:30:40;10.20;;;1.85;;
49738;SDS011;53662;50.114;8.626;2023-12-20T11:33:07;8.90;;;1.98;;
49738;SDS011;53662;50.114;8.626;2023-12-20T11:35:33;8.18;;;1.73;;
49738;SDS011;53662;50.114;8.626;2023-12-20T11:38:01;5.85;;;1.90;;
49738;SDS011;53662;50.114;8.626;2023-12-20T11:40:27;4.93;;;2.03;;
49738;SDS011;53662;50.114;8.626;2023-12-20T11:42:53;7.75;;;2.10;;
49738;SDS011;53662;50.114;8.626;2023-12-20T11:45:20;9.15;;;2.03;;
49738;SDS011;53662;50.114;8.626;2023-12-20T11:47:47;3.70;;;0.77;;
49738;SDS011;53662;50.114;8.626;2023-12-20T11:50:16;11.30;;;2.55;;
49738;SDS011;53662;50.114;8.626;2023-12-20T11:52:42;7.15;;;1.15;;
49738;SDS011;53662;50.114;8.626;2023-12-20T11:55:08;5.25;;;1.80;;
49738;SDS011;53662;50.114;8.626;2023-12-20T11:57:35;6.28;;;2.03;;
49738;SDS011;53662;50.114;8.626;2023-12-20T12:00:01;5.90;;;1.85;;
49738;SDS011;53662;50.114;8.626;2023-12-20T12:02:28;10.05;;;2.03;;
49738;SDS011;53662;50.114;8.626;2023-12-20T12:04:53;5.30;;;1.65;;
49738;SDS011;53662;50.114;8.626;2023-12-20T12:07:21;2.92;;;0.68;;
49738;SDS011;53662;50.114;8.626;2023-12-20T12:09:47;6.00;;;1.55;;
49738;SDS011;53662;50.114;8.626;2023-12-20T12:12:13;5.00;;;2.03;;
49738;SDS011;53662;50.114;8.626;2023-12-20T12:14:39;11.05;;;1.33;;
49738;SDS011;53662;50.114;8.626;2023-12-20T12:17:11;5.50;;;1.83;;
49738;SDS011;53662;50.114;8.626;2023-12-20T12:19:37;6.50;;;1.80;;
49738;SDS011;53662;50.114;8.626;2023-12-20T12:22:04;9.52;;;1.70;;
49738;SDS011;53662;50.114;8.626;2023-12-20T12:27:02;6.20;;;1.90;;
49738;SDS011;53662;50.114;8.626;2023-12-20T12:29:28;12.40;;;2.15;;
49738;SDS011;53662;50.114;8.626;2023-12-20T12:31:55;4.25;;;1.23;;
49738;SDS011;53662;50.114;8.626;2023-12-20T12:34:21;6.25;;;1.65;;
49738;SDS011;53662;50.114;8.626;2023-12-20T12:36:47;9.05;;;1.55;;
49738;SDS011;53662;50.114;8.626;2023-12-20T12:39:13;5.38;;;1.30;;
49738;SDS011;53662;50.114;8.626;2023-12-20T12:41:42;6.65;;;1.45;;
49738;SDS011;53662;50.114;8.626;2023-12-20T12:44:08;13.73;;;2.20;;
49738;SDS011;53662;50.114;8.626;2023-12-20T12:46:34;6.00;;;1.60;;
49738;SDS011;53662;50.114;8.626;2023-12-20T12:49:00;5.85;;;1.73;;
49738;SDS011;53662;50.114;8.626;2023-12-20T12:51:27;3.38;;;1.60;;
49738;SDS011;53662;50.114;8.626;2023-12-20T12:53:53;4.00;;;1.02;;
49738;SDS011;53662;50.114;8.626;2023-12-20T12:56:18;11.13;;;2.08;;
49738;SDS011;53662;50.114;8.626;2023-12-20T12:58:44;8.95;;;1.98;;
49738;SDS011;53662;50.114;8.626;2023-12-20T13:01:11;8.52;;;1.13;;
49738;SDS011;53662;50.114;8.626;2023-12-20T13:03:37;6.85;;;1.77;;
49738;SDS011;53662;50.114;8.626;2023-12-20T13:06:03;2.83;;;0.95;;
49738;SDS011;53662;50.114;8.626;2023-12-20T13:08:30;4.05;;;1.48;;
49738;SDS011;53662;50.114;8.626;2023-12-20T13:10:56;7.43;;;2.03;;
49738;SDS011;53662;50.114;8.626;2023-12-20T13:13:25;9.73;;;2.03;;
49738;SDS011;53662;50.114;8.626;2023-12-20T13:15:51;3.05;;;1.30;;
49738;SDS011;53662;50.114;8.626;2023-12-20T13:18:20;4.35;;;1.25;;
49738;SDS011;53662;50.114;8.626;2023-12-20T13:20:46;2.95;;;1.85;;
49738;SDS011;53662;50.114;8.626;2023-12-20T13:23:11;4.72;;;1.40;;
49738;SDS011;53662;50.114;8.626;2023-12-20T13:25:37;8.15;;;1.60;;
49738;SDS011;53662;50.114;8.626;2023-12-20T13:28:03;7.30;;;1.40;;
49738;SDS011;53662;50.114;8.626;2023-12-20T13:30:30;4.18;;;1.23;;
49738;SDS011;53662;50.114;8.626;2023-12-20T13:32:55;3.80;;;1.92;;
49738;SDS011;53662;50.114;8.626;2023-12-20T13:35:21;3.20;;;1.40;;
49738;SDS011;53662;50.114;8.626;2023-12-20T13:37:47;7.88;;;1.42;;
49738;SDS011;53662;50.114;8.626;2023-12-20T13:40:13;6.07;;;1.60;;
49738;SDS011;53662;50.114;8.626;2023-12-20T13:42:39;7.82;;;2.00;;
49738;SDS011;53662;50.114;8.626;2023-12-20T13:45:05;2.80;;;1.38;;
49738;SDS011;53662;50.114;8.626;2023-12-20T13:47:32;3.53;;;1.67;;
49738;SDS011;53662;50.114;8.626;2023-12-20T13:49:58;2.90;;;1.40;;
49738;SDS011;53662;50.114;8.626;2023-12-20T13:52:24;7.30;;;1.52;;
49738;SDS011;53662;50.114;8.626;2023-12-20T13:54:50;1.92;;;0.73;;
49738;SDS011;53662;50.114;8.626;2023-12-20T13:57:16;5.68;;;1.65;;
49738;SDS011;53662;50.114;8.626;2023-12-20T13:59:42;7.95;;;2.78;;
49738;SDS011;53662;50.114;8.626;2023-12-20T14:02:08;3.72;;;2.08;;
49738;SDS011;53662;50.114;8.626;2023-12-20T14:04:34;5.22;;;1.45;;
49738;SDS011;53662;50.114;8.626;2023-12-20T14:07:00;7.53;;;1.77;;
49738;SDS011;53662;50.114;8.626;2023-12-20T14:09:26;6.80;;;1.65;;
49738;SDS011;53662;50.114;8.626;2023-12-20T14:11:52;3.15;;;1.10;;
49738;SDS011;53662;50.114;8.626;2023-12-20T14:14:19;6.10;;;1.38;;
49738;SDS011;53662;50.114;8.626;2023-12-20T14:16:45;5.88;;;2.22;;
49738;SDS011;53662;50.114;8.626;2023-12-20T14:19:11;4.65;;;1.52;;
49738;SDS011;53662;50.114;8.626;2023-12-20T14:21:37;4.78;;;1.38;;
49738;SDS011;53662;50.114;8.626;2023-12-20T14:24:03;7.90;;;1.92;;
49738;SDS011;53662;50.114;8.626;2023-12-20T14:26:30;9.50;;;1.75;;
49738;SDS011;53662;50.114;8.626;2023-12-20T14:28:56;2.33;;;0.47;;
49738;SDS011;53662;50.114;8.626;2023-12-20T14:31:22;4.20;;;1.23;;
49738;SDS011;53662;50.114;8.626;2023-12-20T14:33:50;3.65;;;0.77;;
49738;SDS011;53662;50.114;8.626;2023-12-20T14:36:18;6.53;;;1.67;;
49738;SDS011;53662;50.114;8.626;2023-12-20T14:38:45;2.90;;;1.17;;
49738;SDS011;53662;50.114;8.626;2023-12-20T14:41:12;1.73;;;1.02;;
49738;SDS011;53662;50.114;8.626;2023-12-20T14:43:38;4.22;;;1.30;;
49738;SDS011;53662;50.114;8.626;2023-12-20T14:46:04;6.78;;;1.50;;